createdAt,value
2019-05-01T00:04:21.000Z,49.52
2019-05-01T00:14:21.000Z,49.57
2019-05-01T00:24:21.000Z,49.579
2019-05-01T00:34:22.000Z,49.5
2019-05-01T00:44:21.000Z,49.572
2019-05-01T00:54:21.000Z,49.591
2019-05-01T01:04:21.000Z,49.61
2019-05-01T01:14:21.000Z,49.608
2019-05-01T01:24:23.000Z,49.667
2019-05-01T01:34:21.000Z,49.655
2019-05-01T01:44:21.000Z,49.663
2019-05-01T01:54:25.000Z,49.661
2019-05-01T02:04:21.000Z,49.669
2019-05-01T02:14:21.000Z,49.688
2019-05-01T02:24:21.000Z,49.686
2019-05-01T02:34:21.000Z,49.695
2019-05-01T02:44:21.000Z,49.733
2019-05-01T02:54:21.000Z,49.744
2019-05-01T03:04:21.000Z,49.762
2019-05-01T03:14:21.000Z,49.717
2019-05-01T03:24:23.000Z,49.756
2019-05-01T03:34:21.000Z,49.745
2019-05-01T03:44:23.000Z,49.753
2019-05-01T03:54:21.000Z,49.771
2019-05-01T04:04:21.000Z,49.75
2019-05-01T04:14:21.000Z,49.747
2019-05-01T04:24:21.000Z,49.724
2019-05-01T04:34:22.000Z,49.765
2019-05-01T04:44:21.000Z,49.763
2019-05-01T04:54:21.000Z,49.719
2019-05-01T05:04:21.000Z,49.717
2019-05-01T05:14:22.000Z,49.716
2019-05-01T05:24:22.000Z,49.748
2019-05-01T05:34:22.000Z,49.693
2019-05-01T05:44:21.000Z,49.681
2019-05-01T05:54:23.000Z,49.755
2019-05-01T06:04:21.000Z,49.711
2019-05-01T06:14:21.000Z,49.668
2019-05-01T06:24:21.000Z,49.603
2019-05-01T06:34:21.000Z,49.613
2019-05-01T06:44:23.000Z,49.538
2019-05-01T06:54:23.000Z,49.538
2019-05-01T07:04:22.000Z,49.43
2019-05-01T07:14:22.000Z,49.472
2019-05-01T07:24:24.000Z,49.46
2019-05-01T07:34:22.000Z,49.366
2019-05-01T07:44:22.000Z,49.375
2019-05-01T07:54:22.000Z,49.386
2019-05-01T08:04:22.000Z,49.333
2019-05-01T08:14:22.000Z,49.301
2019-05-01T08:24:22.000Z,49.185
2019-05-01T08:34:22.000Z,49.154
2019-05-01T08:44:22.000Z,49.154
2019-05-01T08:54:22.000Z,49.08
2019-05-01T09:14:22.000Z,49.071
2019-05-01T09:24:22.000Z,49.041
2019-05-01T09:34:22.000Z,48.988
2019-05-01T09:44:22.000Z,48.893
2019-05-01T09:54:22.000Z,48.862
2019-05-01T10:04:22.000Z,48.759
2019-05-01T10:14:22.000Z,48.581
2019-05-01T10:24:22.000Z,48.024
2019-05-01T10:34:22.000Z,48.072
2019-05-01T10:44:23.000Z,47.958
2019-05-01T10:54:22.000Z,47.632
2019-05-01T11:04:32.000Z,47.583
2019-05-01T11:14:35.000Z,47.351
2019-05-01T11:24:32.000Z,47.3
2019-05-01T11:34:33.000Z,47.271
2019-05-01T11:44:32.000Z,47.188
2019-05-01T11:54:32.000Z,47.243
2019-05-01T12:04:32.000Z,47.096
2019-05-01T12:14:35.000Z,47.078
2019-05-01T12:24:32.000Z,46.975
2019-05-01T12:34:33.000Z,46.944
2019-05-01T12:44:33.000Z,46.871
2019-05-01T12:54:32.000Z,46.902
2019-05-01T13:04:32.000Z,46.893
2019-05-01T13:14:32.000Z,46.937
2019-05-01T13:24:32.000Z,46.929
2019-05-01T13:34:32.000Z,46.823
2019-05-01T13:44:32.000Z,46.782
2019-05-01T13:54:33.000Z,46.793
2019-05-01T14:04:32.000Z,46.807
2019-05-01T14:14:32.000Z,46.796
2019-05-01T14:24:32.000Z,46.798
2019-05-01T14:34:32.000Z,46.896
2019-05-01T14:44:32.000Z,46.972
2019-05-01T14:54:33.000Z,46.942
2019-05-01T15:04:32.000Z,47.017
2019-05-01T15:14:33.000Z,46.865
2019-05-01T15:24:32.000Z,46.888
2019-05-01T15:34:32.000Z,46.918
2019-05-01T15:44:33.000Z,47.06
2019-05-01T15:54:32.000Z,47.047
2019-05-01T16:04:34.000Z,47.026
2019-05-01T16:14:32.000Z,47.025
2019-05-01T16:24:32.000Z,47.025
2019-05-01T16:34:32.000Z,47.001
2019-05-01T16:44:32.000Z,47.024
2019-05-01T16:54:32.000Z,46.98
2019-05-01T17:04:32.000Z,47.042
2019-05-01T17:14:33.000Z,47.021
2019-05-01T17:24:32.000Z,47.051
2019-05-01T17:34:36.000Z,47.008
2019-05-01T17:44:33.000Z,47.03
2019-05-01T17:54:32.000Z,47.092
2019-05-01T18:04:33.000Z,47.155
2019-05-01T18:14:33.000Z,47.176
2019-05-01T18:24:32.000Z,47.249
2019-05-01T18:34:32.000Z,47.269
2019-05-01T18:44:33.000Z,47.321
2019-05-01T18:54:33.000Z,47.33
2019-05-01T19:04:35.000Z,47.381
2019-05-01T19:14:33.000Z,47.433
2019-05-01T19:24:33.000Z,47.431
2019-05-01T19:34:33.000Z,47.516
2019-05-01T19:44:33.000Z,47.515
2019-05-01T19:54:33.000Z,47.5
2019-05-01T20:04:33.000Z,47.542
2019-05-01T20:14:33.000Z,47.583
2019-05-01T20:24:33.000Z,47.592
2019-05-01T20:34:33.000Z,47.633
2019-05-01T20:44:33.000Z,47.674
2019-05-01T20:54:33.000Z,47.694
2019-05-01T21:04:34.000Z,47.745
2019-05-01T21:14:33.000Z,47.721
2019-05-01T21:24:33.000Z,47.816
2019-05-01T21:34:33.000Z,47.835
2019-05-01T21:44:33.000Z,47.875
2019-05-01T21:54:33.000Z,47.874
2019-05-01T22:04:33.000Z,47.935
2019-05-01T22:14:34.000Z,47.965
2019-05-01T22:24:33.000Z,47.954
2019-05-01T22:34:35.000Z,48.003
2019-05-01T22:44:33.000Z,48
2019-05-01T22:54:33.000Z,48.074
2019-05-01T23:04:33.000Z,48.049
2019-05-01T23:14:33.000Z,48.144
2019-05-01T23:34:33.000Z,48.139
2019-05-01T23:44:33.000Z,48.2
2019-05-01T23:54:33.000Z,48.199
